Deronda, Wisconsin
Current Conditions -  °F | °C
As of 5:15 AM on Thursday 23 Oct 2014 (Local Time) from KOEO Reporting Station
Overcast Overcast  
Wind Chill: 47°   Ceiling: 1600
Heat Index: 49°   Visibility: 10mi
Dew Point: 49°   Wind: 6mph
Humidity: 100%   Direction: 150°SSE
Pressure: 30.02"   Gusts: NA
Location:  45.3559°N, 92.3527°W
Report Text: KOEO 231015Z AUTO 15005KT 10SM OVC016 10/10 A3002 RMK AO2 T00960096
Loading
Personal Weather Stations






























Interactive Weather Map
Tropical Storm Tracking
New forecast layout! Learn more

10-Day Weather Forecast

Advertisements
Track Severe Weather on mobile